Time;durP1;ratioP1;P1;durP2;ratioP2;P2;SDS_P1;SDS_P2;PMS_P1;PMS_P2;Temp;Humidity;BMP_temperature;BMP_pressure;BME280_temperature;BME280_humidity;BME280_pressure;Samples;Min_cycle;Max_cycle;Signal;HPM_P1;HPM_P2
2022/03/27 00:02:25;;;;;;;15.20;8.80;;;;;;;;;;5017968;28;20432;-84
2022/03/27 00:04:51;;;;;;;16.27;9.77;;;;;;;;;;5019415;28;21118;-82
2022/03/27 00:07:18;;;;;;;15.45;8.93;;;;;;;;;;5016637;28;20758;-83
2022/03/27 00:09:45;;;;;;;14.43;9.30;;;;;;;;;;5018816;28;20441;-82
2022/03/27 00:12:12;;;;;;;16.48;9.82;;;;;;;;;;5020877;28;20479;-84
2022/03/27 00:14:38;;;;;;;15.37;8.23;;;;;;;;;;5020132;28;20459;-83
2022/03/27 00:17:05;;;;;;;17.90;9.00;;;;;;;;;;5020330;28;20420;-83
2022/03/27 00:19:31;;;;;;;16.85;9.00;;;;;;;;;;5018641;28;20847;-83
2022/03/27 00:21:57;;;;;;;19.30;10.68;;;;;;;;;;5014941;28;20796;-84
2022/03/27 00:24:23;;;;;;;20.35;10.27;;;;;;;;;;5018370;28;20550;-83
2022/03/27 00:26:52;;;;;;;22.80;10.20;;;;;;;;;;5017637;28;20936;-83
2022/03/27 00:29:18;;;;;;;18.30;9.85;;;;;;;;;;5018093;28;20807;-82
2022/03/27 00:31:45;;;;;;;19.58;11.55;;;;;;;;;;5018904;28;20512;-83
2022/03/27 00:34:11;;;;;;;23.70;11.85;;;;;;;;;;5016558;28;20444;-82
2022/03/27 00:36:37;;;;;;;24.58;11.70;;;;;;;;;;5006858;28;20431;-83
2022/03/27 00:39:04;;;;;;;20.50;11.15;;;;;;;;;;5015692;28;20436;-82
2022/03/27 00:41:30;;;;;;;23.55;12.27;;;;;;;;;;5018354;28;20416;-85
2022/03/27 00:43:58;;;;;;;19.65;12.60;;;;;;;;;;5016569;28;20791;-85
2022/03/27 00:46:24;;;;;;;20.80;11.77;;;;;;;;;;5015273;28;20539;-84
2022/03/27 00:48:50;;;;;;;24.77;13.00;;;;;;;;;;5018372;28;20471;-84
2022/03/27 00:51:16;;;;;;;17.75;12.73;;;;;;;;;;5016654;28;20436;-84
2022/03/27 00:53:43;;;;;;;24.48;14.18;;;;;;;;;;5016042;28;20431;-84
2022/03/27 00:56:09;;;;;;;26.45;12.68;;;;;;;;;;5015730;28;20436;-82
2022/03/27 00:58:35;;;;;;;21.40;12.60;;;;;;;;;;5016051;28;20478;-83
2022/03/27 01:01:15;;;;;;;22.05;12.82;;;;;;;;;;5012399;28;20437;-83
2022/03/27 01:03:42;;;;;;;27.42;12.73;;;;;;;;;;5019633;28;21059;-83
2022/03/27 01:06:17;;;;;;;23.13;13.48;;;;;;;;;;5024522;28;20417;-83
2022/03/27 01:11:27;;;;;;;28.05;12.75;;;;;;;;;;5019926;28;20829;-86
2022/03/27 01:13:55;;;;;;;29.58;13.63;;;;;;;;;;5021258;28;20421;-83
2022/03/27 01:16:32;;;;;;;24.95;13.00;;;;;;;;;;5016358;28;20438;-86
2022/03/27 01:18:59;;;;;;;29.17;13.50;;;;;;;;;;5020756;28;20435;-83
2022/03/27 01:21:26;;;;;;;35.67;15.02;;;;;;;;;;5017686;28;20434;-82
2022/03/27 01:23:54;;;;;;;38.70;16.02;;;;;;;;;;5022328;28;20508;-83
2022/03/27 01:26:20;;;;;;;29.38;12.73;;;;;;;;;;5022828;28;20420;-84
2022/03/27 01:28:47;;;;;;;33.38;13.77;;;;;;;;;;5023298;28;20434;-81
2022/03/27 01:31:13;;;;;;;32.78;13.55;;;;;;;;;;5026661;28;20431;-83
2022/03/27 01:33:39;;;;;;;32.97;14.68;;;;;;;;;;5024398;28;20432;-84
2022/03/27 01:36:06;;;;;;;32.60;14.40;;;;;;;;;;5019913;28;20498;-83
2022/03/27 01:38:34;;;;;;;38.72;15.52;;;;;;;;;;5024465;28;20420;-82
2022/03/27 01:41:00;;;;;;;33.35;13.95;;;;;;;;;;5022878;28;20465;-85
2022/03/27 01:43:26;;;;;;;34.75;14.15;;;;;;;;;;5021566;28;20461;-84
2022/03/27 01:45:53;;;;;;;34.80;13.85;;;;;;;;;;5023311;28;20454;-83
2022/03/27 01:48:19;;;;;;;38.72;14.43;;;;;;;;;;5024356;28;20994;-82
2022/03/27 01:50:57;;;;;;;33.67;14.10;;;;;;;;;;5026062;28;20457;-84
2022/03/27 01:53:23;;;;;;;36.97;14.90;;;;;;;;;;5022570;28;20431;-83
2022/03/27 01:55:51;;;;;;;40.55;16.98;;;;;;;;;;5024861;28;20431;-83
2022/03/27 01:58:17;;;;;;;45.92;16.10;;;;;;;;;;5028432;28;20487;-83
2022/03/27 02:00:43;;;;;;;44.50;17.08;;;;;;;;;;5023994;28;20430;-84
2022/03/27 02:03:10;;;;;;;38.10;15.60;;;;;;;;;;5018093;28;20431;-83
2022/03/27 02:05:36;;;;;;;43.35;16.10;;;;;;;;;;5021866;28;20836;-83
2022/03/27 02:08:03;;;;;;;42.97;16.10;;;;;;;;;;5018866;28;20424;-83
2022/03/27 02:10:30;;;;;;;50.25;18.17;;;;;;;;;;5021780;28;20433;-83
2022/03/27 02:12:57;;;;;;;53.67;18.00;;;;;;;;;;5017120;28;21013;-83
2022/03/27 02:15:25;;;;;;;38.40;15.98;;;;;;;;;;5018767;28;20466;-84
2022/03/27 02:17:52;;;;;;;49.38;16.90;;;;;;;;;;5015484;28;20459;-83
2022/03/27 02:20:18;;;;;;;41.78;16.80;;;;;;;;;;5016396;28;20500;-83
2022/03/27 02:22:44;;;;;;;46.25;17.27;;;;;;;;;;5014215;28;20433;-83
2022/03/27 02:25:11;;;;;;;49.92;18.40;;;;;;;;;;5016159;28;20430;-82
2022/03/27 02:27:37;;;;;;;50.08;18.23;;;;;;;;;;5017138;28;20426;-83
2022/03/27 02:30:07;;;;;;;56.33;19.05;;;;;;;;;;5017934;28;20480;-82
2022/03/27 02:32:33;;;;;;;50.22;18.65;;;;;;;;;;5016846;28;20413;-82
2022/03/27 02:34:59;;;;;;;47.50;16.40;;;;;;;;;;5019576;28;20480;-82
2022/03/27 02:37:25;;;;;;;48.07;16.73;;;;;;;;;;5017975;28;20519;-82
2022/03/27 02:39:52;;;;;;;49.13;18.05;;;;;;;;;;5019342;28;20431;-83
2022/03/27 02:42:18;;;;;;;56.83;16.90;;;;;;;;;;5019067;28;20485;-83
2022/03/27 02:44:44;;;;;;;48.05;17.05;;;;;;;;;;5020020;28;20439;-83
2022/03/27 02:47:12;;;;;;;38.30;15.13;;;;;;;;;;5022203;28;20434;-83
2022/03/27 02:49:38;;;;;;;45.53;16.40;;;;;;;;;;5039415;28;20833;-83
2022/03/27 02:52:05;;;;;;;49.85;17.40;;;;;;;;;;5034336;28;20842;-83
2022/03/27 02:54:31;;;;;;;55.83;16.55;;;;;;;;;;5017985;28;20439;-82
2022/03/27 02:56:57;;;;;;;51.20;17.70;;;;;;;;;;5021575;28;20419;-84
2022/03/27 02:59:25;;;;;;;59.35;17.70;;;;;;;;;;5041764;28;20428;-83
2022/03/27 03:01:51;;;;;;;53.72;15.48;;;;;;;;;;5037922;28;20413;-83
2022/03/27 03:04:19;;;;;;;50.30;16.90;;;;;;;;;;5037874;28;21101;-84
2022/03/27 03:06:45;;;;;;;45.90;15.20;;;;;;;;;;5154280;22;20445;-78
2022/03/27 03:09:11;;;;;;;43.78;17.75;;;;;;;;;;5059469;28;20415;-78
2022/03/27 03:11:38;;;;;;;49.63;19.83;;;;;;;;;;5057230;28;20424;-78
2022/03/27 03:14:04;;;;;;;52.78;20.80;;;;;;;;;;5059527;28;20934;-78
2022/03/27 03:16:31;;;;;;;53.28;20.83;;;;;;;;;;5058947;28;20444;-79
2022/03/27 03:18:57;;;;;;;65.20;23.00;;;;;;;;;;5054778;28;20858;-79
2022/03/27 03:21:25;;;;;;;61.80;23.98;;;;;;;;;;5057200;28;20431;-78
2022/03/27 03:23:51;;;;;;;61.55;24.52;;;;;;;;;;5054114;28;20428;-79
2022/03/27 03:26:18;;;;;;;55.80;22.45;;;;;;;;;;5057197;28;20441;-79
2022/03/27 03:28:44;;;;;;;58.85;25.42;;;;;;;;;;5053661;28;21023;-77
2022/03/27 03:31:11;;;;;;;59.33;22.50;;;;;;;;;;5057387;28;20913;-78
2022/03/27 03:33:37;;;;;;;68.20;21.93;;;;;;;;;;5057941;28;20458;-78
2022/03/27 03:36:04;;;;;;;55.45;21.98;;;;;;;;;;5054764;28;20494;-78
2022/03/27 03:38:31;;;;;;;52.33;20.03;;;;;;;;;;5056103;28;20429;-80
2022/03/27 03:40:59;;;;;;;58.38;21.95;;;;;;;;;;5054539;28;20439;-78
2022/03/27 03:43:25;;;;;;;58.20;22.40;;;;;;;;;;5055750;28;20459;-78
2022/03/27 03:45:51;;;;;;;62.53;24.65;;;;;;;;;;5058324;28;20439;-78
2022/03/27 03:48:18;;;;;;;65.80;24.45;;;;;;;;;;5054045;28;21300;-78
2022/03/27 03:50:44;;;;;;;56.95;23.35;;;;;;;;;;5056238;28;20427;-78
2022/03/27 03:53:10;;;;;;;62.33;24.38;;;;;;;;;;5053440;28;20440;-78
2022/03/27 03:55:38;;;;;;;56.40;24.15;;;;;;;;;;5058143;28;20419;-78
2022/03/27 03:58:05;;;;;;;50.83;22.55;;;;;;;;;;5052893;28;20440;-77
2022/03/27 04:00:31;;;;;;;58.83;23.35;;;;;;;;;;5058926;28;20425;-78
2022/03/27 04:02:58;;;;;;;59.92;22.48;;;;;;;;;;5055690;28;20489;-80
2022/03/27 04:05:24;;;;;;;59.63;22.48;;;;;;;;;;5056170;28;20515;-78
2022/03/27 04:07:51;;;;;;;60.65;22.55;;;;;;;;;;5055760;28;20500;-78
2022/03/27 04:10:17;;;;;;;60.28;23.08;;;;;;;;;;5056724;28;20492;-78
2022/03/27 04:12:45;;;;;;;68.53;23.35;;;;;;;;;;5057384;28;20475;-78
2022/03/27 04:15:11;;;;;;;58.38;23.77;;;;;;;;;;5056380;28;20450;-78
2022/03/27 04:17:41;;;;;;;55.08;21.80;;;;;;;;;;5058131;28;20423;-78
2022/03/27 04:20:08;;;;;;;52.25;21.08;;;;;;;;;;5054910;28;20840;-78
2022/03/27 04:22:34;;;;;;;59.22;22.50;;;;;;;;;;5056254;28;21115;-78
2022/03/27 04:25:00;;;;;;;53.47;20.55;;;;;;;;;;5056732;28;20485;-78
2022/03/27 04:27:27;;;;;;;56.75;20.80;;;;;;;;;;5053205;28;21376;-80
2022/03/27 04:29:55;;;;;;;60.35;21.48;;;;;;;;;;5053135;28;20826;-79
2022/03/27 04:32:21;;;;;;;56.20;22.40;;;;;;;;;;5052888;28;20425;-78
2022/03/27 04:34:50;;;;;;;61.55;22.70;;;;;;;;;;5057178;28;20469;-80
2022/03/27 04:37:16;;;;;;;59.58;20.45;;;;;;;;;;5055309;28;20425;-79
2022/03/27 04:39:42;;;;;;;53.75;21.08;;;;;;;;;;5054663;28;20439;-78
2022/03/27 04:42:10;;;;;;;57.88;21.20;;;;;;;;;;5052047;28;20411;-77
2022/03/27 04:44:36;;;;;;;50.83;20.42;;;;;;;;;;5055500;28;20487;-78
2022/03/27 04:47:05;;;;;;;55.35;20.08;;;;;;;;;;5056034;28;20913;-79
2022/03/27 04:49:31;;;;;;;62.35;21.60;;;;;;;;;;5055182;28;20445;-79
2022/03/27 04:51:58;;;;;;;52.80;20.70;;;;;;;;;;5055474;28;20415;-78
2022/03/27 04:54:24;;;;;;;57.03;20.88;;;;;;;;;;5056914;28;20524;-79
2022/03/27 04:56:51;;;;;;;55.53;20.55;;;;;;;;;;5050417;28;20463;-80
2022/03/27 04:59:18;;;;;;;57.85;22.77;;;;;;;;;;5053587;28;20483;-78
2022/03/27 05:01:44;;;;;;;57.22;22.77;;;;;;;;;;5054946;28;20460;-77
2022/03/27 05:04:12;;;;;;;60.50;23.80;;;;;;;;;;5056835;28;20425;-78
2022/03/27 05:06:38;;;;;;;63.13;25.77;;;;;;;;;;5053556;28;20430;-78
2022/03/27 05:09:05;;;;;;;79.22;30.33;;;;;;;;;;5055286;28;20877;-78
2022/03/27 05:11:31;;;;;;;77.05;31.40;;;;;;;;;;5054834;28;20951;-78
2022/03/27 05:13:57;;;;;;;86.40;34.28;;;;;;;;;;5055431;28;20988;-80
2022/03/27 05:16:24;;;;;;;74.47;33.73;;;;;;;;;;5053501;28;20535;-79
2022/03/27 05:18:50;;;;;;;88.10;34.95;;;;;;;;;;5054787;28;20995;-78
2022/03/27 05:21:18;;;;;;;77.00;31.95;;;;;;;;;;5053172;28;20484;-81
2022/03/27 05:23:44;;;;;;;81.47;33.92;;;;;;;;;;5053914;28;20797;-78
2022/03/27 05:26:10;;;;;;;79.93;34.80;;;;;;;;;;5056634;28;20930;-78
2022/03/27 05:28:36;;;;;;;83.00;32.85;;;;;;;;;;5052794;28;20427;-79
2022/03/27 05:31:03;;;;;;;77.33;32.10;;;;;;;;;;5052767;28;20439;-79
2022/03/27 05:33:30;;;;;;;83.35;35.22;;;;;;;;;;5054882;28;20508;-78
2022/03/27 05:35:56;;;;;;;78.72;34.33;;;;;;;;;;5052549;28;20425;-79
2022/03/27 05:38:24;;;;;;;83.97;34.80;;;;;;;;;;5050709;28;20844;-78
2022/03/27 05:40:50;;;;;;;82.18;35.60;;;;;;;;;;5051277;28;20441;-78
2022/03/27 05:43:16;;;;;;;76.63;32.92;;;;;;;;;;5054526;28;20427;-78
2022/03/27 05:45:42;;;;;;;73.93;29.45;;;;;;;;;;5055951;28;20437;-78
2022/03/27 05:48:12;;;;;;;83.47;34.08;;;;;;;;;;5055171;28;20415;-80
2022/03/27 05:50:38;;;;;;;86.45;34.15;;;;;;;;;;5056008;28;20911;-78
2022/03/27 05:53:04;;;;;;;91.97;36.47;;;;;;;;;;5056443;28;20941;-76
2022/03/27 05:55:32;;;;;;;82.20;34.10;;;;;;;;;;5055104;28;20441;-76
2022/03/27 05:58:00;;;;;;;74.90;32.17;;;;;;;;;;5056004;28;20478;-74
2022/03/27 06:00:26;;;;;;;80.55;30.33;;;;;;;;;;5052368;28;20444;-77
2022/03/27 06:02:53;;;;;;;85.72;33.83;;;;;;;;;;5056002;28;20404;-76
2022/03/27 06:05:22;;;;;;;75.25;33.50;;;;;;;;;;5059948;28;20428;-76
2022/03/27 06:07:50;;;;;;;81.80;34.30;;;;;;;;;;5059671;28;20463;-76
2022/03/27 06:10:16;;;;;;;82.00;34.05;;;;;;;;;;5058703;28;20520;-77
2022/03/27 06:12:45;;;;;;;85.15;36.08;;;;;;;;;;5053489;28;20417;-76
2022/03/27 06:15:12;;;;;;;96.95;36.88;;;;;;;;;;5058054;28;20437;-76
2022/03/27 06:17:40;;;;;;;90.57;36.25;;;;;;;;;;5056930;28;20795;-76
2022/03/27 06:20:06;;;;;;;88.93;34.50;;;;;;;;;;5056341;28;20612;-76
2022/03/27 06:22:33;;;;;;;85.82;34.83;;;;;;;;;;5057477;28;20875;-76
2022/03/27 06:24:59;;;;;;;91.43;36.40;;;;;;;;;;5057211;28;20669;-76
2022/03/27 06:27:25;;;;;;;89.75;34.78;;;;;;;;;;5053256;28;20485;-76
2022/03/27 06:29:53;;;;;;;82.65;35.85;;;;;;;;;;5056775;28;20498;-77
2022/03/27 06:32:19;;;;;;;86.93;36.33;;;;;;;;;;5056240;28;20425;-76
2022/03/27 06:34:45;;;;;;;87.95;35.22;;;;;;;;;;5058897;28;20488;-75
2022/03/27 06:37:11;;;;;;;74.22;33.63;;;;;;;;;;5055661;28;20423;-76
2022/03/27 06:39:38;;;;;;;78.53;32.05;;;;;;;;;;5053421;28;20484;-77
2022/03/27 06:42:04;;;;;;;76.03;33.83;;;;;;;;;;5050225;28;20437;-76
2022/03/27 06:44:31;;;;;;;63.67;29.17;;;;;;;;;;5055573;28;20939;-76
2022/03/27 06:46:58;;;;;;;73.30;33.30;;;;;;;;;;5055594;28;20410;-76
2022/03/27 06:49:25;;;;;;;81.85;35.80;;;;;;;;;;5057417;28;20433;-76
2022/03/27 06:51:51;;;;;;;77.88;36.10;;;;;;;;;;5054974;28;20409;-78
2022/03/27 06:54:20;;;;;;;84.47;35.13;;;;;;;;;;5056297;28;20487;-76
2022/03/27 06:56:47;;;;;;;75.40;33.27;;;;;;;;;;5055417;28;20968;-77
2022/03/27 06:59:13;;;;;;;73.65;32.35;;;;;;;;;;5055765;28;20431;-78
2022/03/27 07:04:33;;;;;;;82.10;34.97;;;;;;;;;;5011497;28;20424;-77
2022/03/27 07:07:00;;;;;;;74.65;34.53;;;;;;;;;;5056138;28;20408;-76
2022/03/27 07:09:26;;;;;;;67.40;32.03;;;;;;;;;;5055579;28;20439;-76
2022/03/27 07:11:52;;;;;;;67.50;32.05;;;;;;;;;;5056247;28;20469;-76
2022/03/27 07:14:18;;;;;;;77.70;35.53;;;;;;;;;;5058021;28;20497;-75
2022/03/27 07:16:45;;;;;;;76.93;34.45;;;;;;;;;;5054694;28;20429;-76
2022/03/27 07:19:14;;;;;;;71.50;32.50;;;;;;;;;;5055958;28;20437;-76
2022/03/27 07:21:42;;;;;;;70.75;31.85;;;;;;;;;;5057193;28;20996;-78
2022/03/27 07:24:09;;;;;;;72.35;31.20;;;;;;;;;;5054655;28;20945;-79
2022/03/27 07:26:36;;;;;;;70.70;33.25;;;;;;;;;;5053755;28;20441;-76
2022/03/27 07:29:04;;;;;;;67.27;32.43;;;;;;;;;;5052833;28;20439;-76
2022/03/27 07:31:31;;;;;;;67.40;30.48;;;;;;;;;;5057046;28;20431;-77
2022/03/27 07:33:57;;;;;;;69.63;31.80;;;;;;;;;;5056290;28;20433;-77
2022/03/27 07:36:23;;;;;;;66.97;30.05;;;;;;;;;;5055383;28;20447;-77
2022/03/27 07:38:51;;;;;;;63.10;31.38;;;;;;;;;;5033739;28;20438;-76
2022/03/27 07:41:17;;;;;;;82.25;33.05;;;;;;;;;;5037105;28;20443;-75
2022/03/27 07:43:43;;;;;;;75.00;32.60;;;;;;;;;;5035848;28;20937;-78
2022/03/27 07:46:10;;;;;;;74.30;35.08;;;;;;;;;;5036224;28;20438;-77
2022/03/27 07:48:36;;;;;;;68.47;33.15;;;;;;;;;;5036187;28;20425;-77
2022/03/27 07:51:04;;;;;;;78.75;33.78;;;;;;;;;;5033648;28;20439;-76
2022/03/27 07:53:30;;;;;;;71.15;33.40;;;;;;;;;;5031879;28;20518;-77
2022/03/27 07:55:58;;;;;;;68.22;32.22;;;;;;;;;;5031182;28;20440;-79
2022/03/27 07:58:24;;;;;;;77.45;33.80;;;;;;;;;;5032191;28;20430;-76
2022/03/27 08:00:50;;;;;;;71.05;34.05;;;;;;;;;;5037039;28;20413;-78
2022/03/27 08:03:16;;;;;;;65.38;31.33;;;;;;;;;;5030955;28;20435;-77
2022/03/27 08:05:43;;;;;;;74.57;32.60;;;;;;;;;;5035222;28;20461;-77
2022/03/27 08:08:09;;;;;;;66.85;31.02;;;;;;;;;;5036743;28;20487;-75
2022/03/27 08:10:36;;;;;;;66.03;30.90;;;;;;;;;;5035601;28;20458;-77
2022/03/27 08:13:03;;;;;;;71.47;31.38;;;;;;;;;;5032976;28;20477;-77
2022/03/27 08:15:29;;;;;;;64.30;30.50;;;;;;;;;;5036746;28;20429;-77
2022/03/27 08:17:56;;;;;;;62.20;30.38;;;;;;;;;;5033811;28;20505;-78
2022/03/27 08:20:22;;;;;;;62.13;31.17;;;;;;;;;;5034308;28;20469;-77
2022/03/27 08:22:49;;;;;;;63.13;29.83;;;;;;;;;;5031909;28;20432;-77
2022/03/27 08:26:55;;;;;;;80.93;31.60;;;;;;;;;;5034962;28;20843;-78
2022/03/27 08:28:03;;;;;;;66.53;33.40;;;;;;;;;;5030829;28;20432;-79
2022/03/27 08:30:30;;;;;;;73.72;33.47;;;;;;;;;;5019761;28;20434;-76
2022/03/27 08:32:56;;;;;;;68.30;31.77;;;;;;;;;;5018622;28;20862;-75
2022/03/27 08:35:22;;;;;;;73.07;32.15;;;;;;;;;;5034578;28;20435;-77
2022/03/27 08:37:49;;;;;;;67.07;33.58;;;;;;;;;;5034358;28;20479;-77
2022/03/27 08:40:16;;;;;;;69.15;31.60;;;;;;;;;;5035090;28;20427;-76
2022/03/27 08:42:42;;;;;;;67.72;32.83;;;;;;;;;;5035393;28;20437;-77
2022/03/27 08:45:10;;;;;;;66.43;33.80;;;;;;;;;;5032006;28;20430;-77
2022/03/27 08:47:39;;;;;;;67.50;32.58;;;;;;;;;;5031818;28;20853;-77
2022/03/27 08:50:26;;;;;;;73.13;34.25;;;;;;;;;;5052795;28;20819;-77
2022/03/27 08:52:56;;;;;;;70.80;32.83;;;;;;;;;;5044680;28;20436;-77
2022/03/27 08:55:31;;;;;;;65.72;32.22;;;;;;;;;;5054103;28;20508;-77
2022/03/27 08:57:58;;;;;;;73.07;33.77;;;;;;;;;;5045816;28;21000;-78
2022/03/27 09:00:28;;;;;;;80.80;34.10;;;;;;;;;;5057058;28;20771;-77
2022/03/27 09:02:55;;;;;;;74.35;33.55;;;;;;;;;;5053929;28;20431;-80
2022/03/27 09:05:22;;;;;;;72.03;34.87;;;;;;;;;;5058201;28;20522;-79
2022/03/27 09:07:49;;;;;;;67.05;34.53;;;;;;;;;;5050714;28;22065;-78
2022/03/27 09:10:16;;;;;;;81.97;36.25;;;;;;;;;;5054389;28;20952;-77
2022/03/27 09:12:43;;;;;;;77.40;35.40;;;;;;;;;;5053203;28;20528;-78
2022/03/27 09:15:10;;;;;;;71.60;36.20;;;;;;;;;;5082546;22;20901;-80
2022/03/27 09:17:51;;;;;;;79.40;36.17;;;;;;;;;;5060464;28;21414;-81
2022/03/27 09:20:32;;;;;;;65.90;34.35;;;;;;;;;;5057676;28;20481;-80
2022/03/27 09:23:06;;;;;;;73.00;36.30;;;;;;;;;;5060241;28;20420;-80
2022/03/27 09:25:42;;;;;;;75.10;34.57;;;;;;;;;;5065541;28;20542;-81
2022/03/27 09:28:08;;;;;;;72.47;35.83;;;;;;;;;;5055271;28;20463;-81
2022/03/27 09:30:36;;;;;;;67.15;35.13;;;;;;;;;;5043558;28;20472;-80
2022/03/27 09:33:03;;;;;;;66.80;34.75;;;;;;;;;;5042303;28;20417;-80
2022/03/27 09:35:33;;;;;;;74.28;35.47;;;;;;;;;;5043119;28;20439;-80
2022/03/27 09:37:59;;;;;;;70.83;34.83;;;;;;;;;;5044790;28;20500;-77
2022/03/27 09:40:35;;;;;;;71.13;36.10;;;;;;;;;;5043232;28;20478;-80
2022/03/27 09:43:09;;;;;;;73.60;36.55;;;;;;;;;;5040383;28;20526;-80
2022/03/27 09:45:36;;;;;;;70.50;36.20;;;;;;;;;;5039179;28;20432;-80
2022/03/27 09:48:07;;;;;;;73.50;36.28;;;;;;;;;;5037390;28;20495;-80
2022/03/27 09:50:36;;;;;;;68.88;36.05;;;;;;;;;;5042622;28;20437;-80
2022/03/27 09:53:20;;;;;;;77.10;38.17;;;;;;;;;;5041044;28;20922;-81
2022/03/27 09:55:51;;;;;;;80.97;43.58;;;;;;;;;;5042996;28;20457;-81
2022/03/27 09:58:32;;;;;;;67.25;40.90;;;;;;;;;;5034197;28;20453;-80
2022/03/27 10:01:07;;;;;;;71.45;40.65;;;;;;;;;;5038475;28;20782;-80
2022/03/27 10:03:34;;;;;;;81.00;42.30;;;;;;;;;;5042063;28;20933;-80
2022/03/27 10:06:02;;;;;;;76.47;42.15;;;;;;;;;;5041365;28;20818;-80
2022/03/27 10:08:28;;;;;;;67.83;37.63;;;;;;;;;;5041501;28;20434;-80
2022/03/27 10:10:55;;;;;;;67.07;35.83;;;;;;;;;;5042157;28;20933;-81
2022/03/27 10:13:25;;;;;;;67.28;33.67;;;;;;;;;;5041241;28;20429;-80
2022/03/27 10:15:57;;;;;;;73.35;36.80;;;;;;;;;;5039601;28;20881;-80
2022/03/27 10:18:23;;;;;;;60.55;32.83;;;;;;;;;;5035998;28;20431;-81
2022/03/27 10:20:51;;;;;;;64.70;34.30;;;;;;;;;;5039847;28;20442;-79
2022/03/27 10:23:21;;;;;;;58.67;32.58;;;;;;;;;;5040489;28;21130;-81
2022/03/27 10:25:50;;;;;;;54.45;28.88;;;;;;;;;;5039016;28;20429;-80
2022/03/27 10:28:17;;;;;;;57.95;29.85;;;;;;;;;;5040170;28;21011;-81
2022/03/27 10:30:44;;;;;;;62.42;29.75;;;;;;;;;;5041186;28;20915;-81
2022/03/27 10:33:11;;;;;;;48.05;27.67;;;;;;;;;;5037353;28;20514;-81
2022/03/27 10:35:46;;;;;;;57.88;27.15;;;;;;;;;;5038218;28;20483;-80
2022/03/27 10:38:17;;;;;;;52.88;26.00;;;;;;;;;;5037868;28;20415;-82
2022/03/27 10:40:49;;;;;;;51.97;23.88;;;;;;;;;;5042362;28;20456;-78
2022/03/27 10:43:18;;;;;;;48.55;23.50;;;;;;;;;;5042607;28;20430;-80
2022/03/27 10:45:46;;;;;;;46.30;21.67;;;;;;;;;;5034059;28;20455;-80
2022/03/27 10:48:13;;;;;;;46.20;23.27;;;;;;;;;;5036626;28;21160;-80
2022/03/27 10:50:50;;;;;;;54.35;23.65;;;;;;;;;;5046599;28;20432;-81
2022/03/27 10:53:16;;;;;;;43.42;21.85;;;;;;;;;;5043690;28;20421;-80
2022/03/27 10:55:43;;;;;;;38.53;21.80;;;;;;;;;;5042909;28;20431;-80
2022/03/27 10:58:27;;;;;;;36.47;20.00;;;;;;;;;;5042487;28;20417;-79
2022/03/27 11:00:53;;;;;;;41.33;20.40;;;;;;;;;;5039064;28;20477;-80
2022/03/27 11:03:34;;;;;;;37.40;19.58;;;;;;;;;;5038690;28;20425;-80
2022/03/27 11:06:01;;;;;;;38.60;19.02;;;;;;;;;;5040948;28;20424;-81
2022/03/27 11:08:46;;;;;;;35.15;18.60;;;;;;;;;;5039083;28;20481;-80
2022/03/27 11:11:12;;;;;;;38.25;20.10;;;;;;;;;;5042981;28;20480;-81
2022/03/27 11:13:40;;;;;;;36.05;19.20;;;;;;;;;;5038295;28;20444;-80
2022/03/27 11:16:07;;;;;;;39.88;20.15;;;;;;;;;;5043076;28;20438;-80
2022/03/27 11:18:35;;;;;;;44.63;19.90;;;;;;;;;;5040306;28;20881;-81
2022/03/27 11:21:01;;;;;;;41.17;19.10;;;;;;;;;;5035261;28;20485;-80
2022/03/27 11:23:36;;;;;;;42.70;20.27;;;;;;;;;;5038936;28;20421;-80
2022/03/27 11:26:03;;;;;;;41.23;18.80;;;;;;;;;;5040712;28;20488;-80
2022/03/27 11:28:50;;;;;;;38.10;18.20;;;;;;;;;;5040656;28;20475;-81
2022/03/27 11:31:22;;;;;;;40.57;17.70;;;;;;;;;;5032975;28;20438;-81
2022/03/27 11:34:08;;;;;;;41.50;17.70;;;;;;;;;;5043832;28;20415;-80
2022/03/27 11:36:35;;;;;;;37.60;19.00;;;;;;;;;;5038499;28;20852;-80
2022/03/27 11:39:04;;;;;;;36.58;17.15;;;;;;;;;;5034534;28;20438;-81
2022/03/27 11:41:31;;;;;;;35.13;17.20;;;;;;;;;;5040456;28;20441;-81
2022/03/27 11:44:18;;;;;;;32.40;14.67;;;;;;;;;;5039316;28;20449;-81
2022/03/27 11:46:49;;;;;;;33.95;16.70;;;;;;;;;;5031532;28;20924;-78
2022/03/27 11:49:16;;;;;;;35.60;16.50;;;;;;;;;;5035848;28;20865;-81
2022/03/27 11:51:42;;;;;;;39.15;17.13;;;;;;;;;;5042635;28;20471;-81
2022/03/27 11:54:17;;;;;;;39.63;17.88;;;;;;;;;;5032790;28;20953;-81
2022/03/27 11:56:52;;;;;;;33.53;17.37;;;;;;;;;;5035472;28;20531;-81
2022/03/27 11:59:18;;;;;;;38.73;17.60;;;;;;;;;;5039576;28;20768;-80
2022/03/27 12:01:49;;;;;;;46.03;18.00;;;;;;;;;;5041044;28;20856;-79
2022/03/27 12:04:16;;;;;;;40.15;17.00;;;;;;;;;;5040481;28;20494;-81
2022/03/27 12:06:42;;;;;;;39.67;16.25;;;;;;;;;;5038740;28;20435;-81
2022/03/27 12:09:09;;;;;;;41.33;16.58;;;;;;;;;;5036200;28;20471;-81
2022/03/27 12:11:35;;;;;;;36.95;17.30;;;;;;;;;;5039415;28;20438;-82
2022/03/27 12:14:08;;;;;;;40.10;16.58;;;;;;;;;;5035410;28;20419;-81
2022/03/27 12:16:34;;;;;;;36.85;17.45;;;;;;;;;;5040622;28;20419;-82
2022/03/27 12:19:12;;;;;;;39.37;17.60;;;;;;;;;;5038144;28;20485;-81
2022/03/27 12:21:45;;;;;;;35.58;16.70;;;;;;;;;;5041852;28;20421;-81
2022/03/27 12:24:11;;;;;;;39.42;16.77;;;;;;;;;;5033106;28;20955;-81
2022/03/27 12:29:43;;;;;;;31.37;16.23;;;;;;;;;;5035557;28;20487;-81
2022/03/27 12:32:11;;;;;;;32.10;17.33;;;;;;;;;;5034327;28;20477;-81
2022/03/27 12:34:42;;;;;;;34.25;17.08;;;;;;;;;;5037861;28;20429;-81
2022/03/27 12:37:12;;;;;;;30.42;17.15;;;;;;;;;;5038520;28;20971;-81
2022/03/27 12:39:59;;;;;;;28.88;16.35;;;;;;;;;;5036588;28;20423;-81
2022/03/27 12:42:32;;;;;;;37.07;17.67;;;;;;;;;;5038484;28;20440;-82
2022/03/27 12:45:00;;;;;;;38.47;18.10;;;;;;;;;;5033349;28;20427;-81
2022/03/27 12:47:30;;;;;;;35.67;18.20;;;;;;;;;;5031296;28;20446;-81
2022/03/27 12:49:58;;;;;;;35.22;17.60;;;;;;;;;;5035768;28;20440;-81
2022/03/27 12:52:24;;;;;;;30.20;17.50;;;;;;;;;;5036943;28;20447;-81
2022/03/27 12:54:58;;;;;;;33.55;17.70;;;;;;;;;;5030964;28;20431;-81
2022/03/27 12:57:27;;;;;;;34.63;18.10;;;;;;;;;;5028485;28;20429;-82
2022/03/27 12:59:53;;;;;;;36.63;19.08;;;;;;;;;;5038185;28;20435;-81
2022/03/27 13:02:23;;;;;;;34.87;18.10;;;;;;;;;;5036837;28;20428;-81
2022/03/27 13:04:58;;;;;;;36.88;18.42;;;;;;;;;;5041141;28;20452;-81
2022/03/27 13:07:40;;;;;;;34.63;17.50;;;;;;;;;;5043458;28;20473;-81
2022/03/27 13:10:09;;;;;;;42.78;18.83;;;;;;;;;;5060086;28;20523;-81
2022/03/27 13:12:36;;;;;;;43.00;21.10;;;;;;;;;;5064726;28;20409;-81
2022/03/27 13:15:02;;;;;;;35.72;17.88;;;;;;;;;;5060539;28;20988;-81
2022/03/27 13:17:29;;;;;;;34.08;18.00;;;;;;;;;;5061457;28;20439;-81
2022/03/27 13:19:55;;;;;;;31.40;17.37;;;;;;;;;;5063768;28;20953;-81
2022/03/27 13:22:22;;;;;;;29.67;17.48;;;;;;;;;;5063994;28;20897;-81
2022/03/27 13:24:50;;;;;;;33.10;17.77;;;;;;;;;;5063039;28;20896;-81
2022/03/27 13:27:16;;;;;;;32.90;16.70;;;;;;;;;;5066573;28;20411;-81
2022/03/27 13:29:42;;;;;;;31.10;17.50;;;;;;;;;;5059047;28;20433;-82
2022/03/27 13:32:09;;;;;;;31.83;15.95;;;;;;;;;;5061469;28;20433;-81
2022/03/27 13:34:36;;;;;;;26.85;15.18;;;;;;;;;;5058851;28;20433;-81
2022/03/27 13:37:02;;;;;;;32.45;17.45;;;;;;;;;;5061961;28;20438;-81
2022/03/27 13:39:30;;;;;;;30.80;17.20;;;;;;;;;;5059818;28;20833;-82
2022/03/27 13:44:40;;;;;;;31.20;16.05;;;;;;;;;;5060631;28;20469;-81
2022/03/27 13:47:07;;;;;;;28.98;14.85;;;;;;;;;;5063290;28;20429;-81
2022/03/27 13:49:34;;;;;;;25.80;14.30;;;;;;;;;;5058094;28;20688;-81
2022/03/27 13:52:00;;;;;;;26.90;15.00;;;;;;;;;;5062730;28;20423;-81
2022/03/27 13:54:27;;;;;;;31.88;15.50;;;;;;;;;;5064733;28;20921;-82
2022/03/27 13:56:54;;;;;;;30.43;16.00;;;;;;;;;;5058822;28;20495;-81
2022/03/27 13:59:23;;;;;;;26.30;14.95;;;;;;;;;;5060881;28;20919;-81
2022/03/27 14:01:51;;;;;;;28.90;15.32;;;;;;;;;;5063323;28;20428;-81
2022/03/27 14:04:17;;;;;;;27.90;14.20;;;;;;;;;;5061762;28;20800;-82
2022/03/27 14:06:44;;;;;;;30.50;16.67;;;;;;;;;;5060908;28;20473;-81
2022/03/27 14:09:11;;;;;;;28.90;15.05;;;;;;;;;;5062746;28;20474;-81
2022/03/27 14:11:38;;;;;;;24.75;14.23;;;;;;;;;;5054692;28;20860;-81
2022/03/27 14:14:06;;;;;;;26.63;14.80;;;;;;;;;;5049159;28;21061;-81
2022/03/27 14:16:32;;;;;;;28.58;15.85;;;;;;;;;;5059361;28;20975;-81
2022/03/27 14:18:58;;;;;;;29.88;14.10;;;;;;;;;;5059132;28;20478;-81
2022/03/27 14:21:24;;;;;;;28.88;14.35;;;;;;;;;;5062032;28;20639;-81
2022/03/27 14:23:51;;;;;;;19.30;12.70;;;;;;;;;;5061620;28;20495;-81
2022/03/27 14:26:18;;;;;;;24.40;13.70;;;;;;;;;;5062130;28;20425;-81
2022/03/27 14:28:44;;;;;;;22.67;12.77;;;;;;;;;;5061695;28;20506;-80
2022/03/27 14:31:12;;;;;;;22.45;13.70;;;;;;;;;;5059549;28;20458;-82
2022/03/27 14:33:38;;;;;;;28.65;13.75;;;;;;;;;;5061602;28;20415;-81